createdAt,value
2023-03-15T00:02:50.866Z,8.20
2023-03-15T00:06:56.551Z,7.45
2023-03-15T00:11:00.468Z,5.03
2023-03-15T00:15:03.174Z,7.43
2023-03-15T00:19:05.987Z,4.30
2023-03-15T00:23:10.490Z,5.00
2023-03-15T00:27:13.503Z,4.35
2023-03-15T00:31:18.187Z,3.72
2023-03-15T00:35:21.536Z,4.13
2023-03-15T00:39:26.652Z,2.85
2023-03-15T00:43:29.579Z,2.53
2023-03-15T00:47:33.399Z,2.72
2023-03-15T00:51:38.764Z,3.17
2023-03-15T00:55:44.260Z,3.40
2023-03-15T00:59:47.695Z,2.88
2023-03-15T01:03:50.963Z,2.05
2023-03-15T01:07:54.540Z,2.15
2023-03-15T01:16:02.280Z,2.42
2023-03-15T01:20:06.350Z,3.00
2023-03-15T01:24:13.900Z,2.78
2023-03-15T01:28:18.554Z,2.47
2023-03-15T01:32:21.669Z,2.20
2023-03-15T01:36:25.147Z,2.35
2023-03-15T01:40:28.175Z,2.10
2023-03-15T01:44:54.480Z,2.25
2023-03-15T01:49:03.728Z,2.08
2023-03-15T01:53:06.979Z,2.10
2023-03-15T01:57:15.048Z,2.05
2023-03-15T02:01:21.776Z,1.95
2023-03-15T02:05:32.768Z,1.70
2023-03-15T02:09:43.118Z,1.75
2023-03-15T02:13:46.825Z,1.70
2023-03-15T02:17:52.251Z,2.65
2023-03-15T02:22:08.309Z,2.67
2023-03-15T02:26:22.619Z,2.45
2023-03-15T02:30:27.226Z,2.22
2023-03-15T02:34:30.533Z,2.00
2023-03-15T02:38:33.694Z,3.28
2023-03-15T02:42:36.854Z,2.45
2023-03-15T02:46:45.018Z,1.65
2023-03-15T02:50:48.402Z,1.73
2023-03-15T02:54:51.626Z,1.63
2023-03-15T02:58:54.755Z,1.13
2023-03-15T03:02:59.385Z,2.67
2023-03-15T03:07:02.562Z,1.73
2023-03-15T03:11:06.058Z,2.13
2023-03-15T03:15:09.855Z,2.25
2023-03-15T03:19:25.902Z,2.55
2023-03-15T03:23:29.210Z,2.70
2023-03-15T03:27:32.231Z,2.58
2023-03-15T03:31:42.531Z,2.95
2023-03-15T03:35:47.513Z,4.25
2023-03-15T03:39:50.757Z,3.92
2023-03-15T03:43:53.397Z,4.80
2023-03-15T03:47:56.162Z,3.45
2023-03-15T03:52:01.725Z,4.05
2023-03-15T03:56:06.950Z,4.47
2023-03-15T04:00:12.304Z,3.72
2023-03-15T04:04:15.603Z,3.28
2023-03-15T04:08:20.341Z,3.95
2023-03-15T04:12:23.613Z,2.67
2023-03-15T04:16:26.727Z,3.95
2023-03-15T04:20:30.031Z,4.05
2023-03-15T04:24:35.829Z,3.55
2023-03-15T04:28:39.173Z,3.53
2023-03-15T04:32:42.810Z,4.32
2023-03-15T04:36:46.043Z,3.33
2023-03-15T04:40:50.638Z,2.90
2023-03-15T04:44:54.070Z,3.75
2023-03-15T04:48:56.717Z,2.88
2023-03-15T04:53:00.231Z,3.00
2023-03-15T04:57:07.358Z,4.00
2023-03-15T05:01:10.065Z,4.25
2023-03-15T05:05:14.115Z,3.90
2023-03-15T05:13:23.900Z,3.50
2023-03-15T05:17:26.708Z,3.65
2023-03-15T05:21:30.115Z,4.15
2023-03-15T05:25:32.925Z,3.25
2023-03-15T05:29:37.168Z,5.78
2023-03-15T05:33:41.115Z,4.00
2023-03-15T05:37:44.140Z,3.53
2023-03-15T05:41:47.046Z,4.68
2023-03-15T05:45:51.444Z,4.00
2023-03-15T05:49:54.247Z,4.80
2023-03-15T05:53:57.472Z,3.83
2023-03-15T05:58:00.174Z,4.97
2023-03-15T06:02:05.496Z,4.18
2023-03-15T06:06:09.119Z,4.45
2023-03-15T06:10:14.421Z,3.40
2023-03-15T06:14:17.922Z,3.72
2023-03-15T06:18:25.207Z,3.80
2023-03-15T06:22:28.499Z,4.57
2023-03-15T06:26:31.623Z,3.78
2023-03-15T06:30:34.535Z,3.97
2023-03-15T06:34:39.188Z,4.40
2023-03-15T06:38:42.497Z,4.00
2023-03-15T06:42:45.368Z,4.32
2023-03-15T06:46:48.937Z,2.67
2023-03-15T06:50:53.823Z,4.05
2023-03-15T06:54:57.192Z,3.40
2023-03-15T06:59:00.121Z,3.42
2023-03-15T07:03:03.383Z,4.57
2023-03-15T07:07:08.162Z,3.80
2023-03-15T07:11:11.351Z,3.97
2023-03-15T07:15:17.047Z,3.72
2023-03-15T07:19:20.191Z,4.18
2023-03-15T07:23:24.478Z,4.13
2023-03-15T07:27:27.771Z,3.90
2023-03-15T07:31:33.305Z,3.83
2023-03-15T07:35:36.615Z,28.30
2023-03-15T07:39:41.569Z,27.75
2023-03-15T08:40:15.871Z,13.10
2023-03-15T08:44:19.208Z,11.93
2023-03-15T08:48:22.163Z,7.13
2023-03-15T08:52:25.693Z,17.75
2023-03-15T08:56:30.775Z,7.25
2023-03-15T09:00:33.630Z,20.50
2023-03-15T09:04:36.798Z,4.32
2023-03-15T09:08:39.732Z,5.72
2023-03-15T09:12:44.735Z,10.18
2023-03-15T09:16:48.388Z,7.30
2023-03-15T09:20:51.395Z,5.35
2023-03-15T09:24:54.408Z,12.30
2023-03-15T09:28:58.578Z,5.88
2023-03-15T09:33:01.760Z,5.25
2023-03-15T09:37:08.264Z,5.90
2023-03-15T09:41:21.175Z,21.73
2023-03-15T09:45:37.179Z,9.55
2023-03-15T09:49:46.945Z,7.20
2023-03-15T09:53:55.980Z,4.15
2023-03-15T09:58:01.424Z,4.45
2023-03-15T10:02:20.502Z,4.18
2023-03-15T10:06:27.530Z,3.90
2023-03-15T10:10:36.533Z,4.68
2023-03-15T10:15:16.730Z,5.28
2023-03-15T10:19:33.742Z,3.00
2023-03-15T10:23:43.567Z,3.47
2023-03-15T10:27:54.789Z,3.13
2023-03-15T10:31:58.061Z,3.83
2023-03-15T10:36:11.090Z,3.28
2023-03-15T10:40:16.724Z,3.38
2023-03-15T10:44:22.279Z,2.92
2023-03-15T10:48:25.264Z,8.85
2023-03-15T10:56:47.014Z,5.65
2023-03-15T11:00:52.995Z,3.83
2023-03-15T11:05:03.797Z,3.30
2023-03-15T11:09:14.830Z,4.03
2023-03-15T11:13:24.010Z,3.08
2023-03-15T11:17:29.199Z,8.85
2023-03-15T11:21:35.033Z,17.63
2023-03-15T11:25:39.894Z,6.90
2023-03-15T11:29:45.740Z,4.05
2023-03-15T11:33:57.357Z,4.90
2023-03-15T11:38:14.653Z,9.13
2023-03-15T11:42:27.080Z,4.82
2023-03-15T11:46:34.582Z,2.55
2023-03-15T11:50:39.825Z,8.80
2023-03-15T11:54:45.442Z,5.38
2023-03-15T11:59:05.570Z,3.25
2023-03-15T12:03:41.268Z,4.38
2023-03-15T12:08:17.179Z,4.93
2023-03-15T12:12:41.592Z,4.15
2023-03-15T12:16:47.582Z,4.65
2023-03-15T12:21:07.532Z,4.20
2023-03-15T12:25:17.022Z,3.45
2023-03-15T12:29:25.448Z,2.63
2023-03-15T12:33:34.733Z,8.15
2023-03-15T12:37:45.572Z,6.13
2023-03-15T12:41:50.455Z,2.85
2023-03-15T12:45:53.919Z,6.05
2023-03-15T12:50:18.544Z,3.13
2023-03-15T12:54:23.900Z,3.78
2023-03-15T12:58:33.448Z,2.70
2023-03-15T13:02:43.702Z,3.15
2023-03-15T13:07:03.062Z,2.60
2023-03-15T13:11:17.506Z,27.08
2023-03-15T13:15:25.292Z,3.10
2023-03-15T13:19:32.013Z,3.50
2023-03-15T13:23:36.606Z,2.88
2023-03-15T13:27:51.362Z,3.28
2023-03-15T13:32:03.387Z,3.08
2023-03-15T13:36:13.371Z,3.58
2023-03-15T13:40:17.921Z,2.83
2023-03-15T13:44:23.958Z,2.85
2023-03-15T13:48:31.584Z,3.13
2023-03-15T13:52:34.892Z,2.40
2023-03-15T13:56:49.693Z,3.60
2023-03-15T14:00:59.576Z,2.55
2023-03-15T14:05:06.703Z,3.35
2023-03-15T14:09:21.491Z,3.00
2023-03-15T14:13:29.154Z,3.05
2023-03-15T14:17:33.623Z,3.13
2023-03-15T14:21:36.931Z,3.05
2023-03-15T14:25:40.557Z,3.22
2023-03-15T14:29:49.219Z,2.75
2023-03-15T14:34:01.025Z,1.80
2023-03-15T14:38:08.998Z,2.67
2023-03-15T14:42:12.931Z,2.15
2023-03-15T14:46:16.991Z,3.13
2023-03-15T14:50:25.055Z,2.95
2023-03-15T14:54:29.898Z,2.95
2023-03-15T14:58:32.912Z,3.30
2023-03-15T15:02:38.450Z,2.70
2023-03-15T15:06:50.744Z,2.20
2023-03-15T15:10:57.027Z,2.80
2023-03-15T15:15:00.320Z,3.03
2023-03-15T15:19:04.848Z,2.70
2023-03-15T15:23:10.935Z,2.40
2023-03-15T15:27:14.817Z,3.17
2023-03-15T15:31:23.175Z,2.10
2023-03-15T15:35:29.347Z,2.92
2023-03-15T15:39:32.332Z,3.05
2023-03-15T15:43:35.339Z,4.40
2023-03-15T15:47:37.984Z,2.78
2023-03-15T15:51:46.005Z,3.05
2023-03-15T15:55:49.140Z,3.65
2023-03-15T15:59:53.467Z,3.63
2023-03-15T16:03:56.568Z,3.70
2023-03-15T16:08:05.408Z,3.45
2023-03-15T16:12:14.909Z,4.03
2023-03-15T16:16:19.280Z,3.28
2023-03-15T16:20:22.679Z,4.88
2023-03-15T16:28:31.072Z,3.97
2023-03-15T16:32:44.033Z,4.32
2023-03-15T16:36:50.134Z,3.88
2023-03-15T16:40:54.252Z,4.93
2023-03-15T16:44:57.271Z,5.05
2023-03-15T16:49:00.137Z,4.63
2023-03-15T16:53:05.309Z,4.72
2023-03-15T16:57:15.820Z,4.05
2023-03-15T17:01:20.019Z,3.55
2023-03-15T17:05:25.067Z,3.92
2023-03-15T17:09:29.107Z,4.20
2023-03-15T17:17:44.056Z,4.25
2023-03-15T17:21:48.065Z,4.63
2023-03-15T17:25:51.637Z,4.72
2023-03-15T17:29:57.282Z,4.85
2023-03-15T17:34:00.354Z,6.45
2023-03-15T17:38:05.057Z,5.45
2023-03-15T17:42:07.991Z,5.07
2023-03-15T17:46:13.669Z,5.40
2023-03-15T17:50:19.287Z,5.75
2023-03-15T17:54:22.545Z,5.25
2023-03-15T17:58:27.347Z,7.20
2023-03-15T18:02:32.800Z,10.40
2023-03-15T18:06:36.044Z,10.07
2023-03-15T18:10:41.752Z,10.07
2023-03-15T18:14:44.554Z,9.82
2023-03-15T18:18:49.077Z,11.98
2023-03-15T18:22:52.193Z,10.93
2023-03-15T18:26:55.380Z,15.20
2023-03-15T18:31:01.099Z,11.20
2023-03-15T18:35:05.964Z,8.13
2023-03-15T18:39:10.164Z,7.43
2023-03-15T18:43:14.738Z,6.63
2023-03-15T18:47:20.376Z,7.38
2023-03-15T18:51:28.307Z,7.22
2023-03-15T18:55:33.741Z,9.10
2023-03-15T18:59:38.933Z,7.70
2023-03-15T19:03:42.088Z,9.05
2023-03-15T19:07:47.833Z,14.43
2023-03-15T19:11:50.766Z,13.02
2023-03-15T19:15:53.692Z,16.95
2023-03-15T19:19:57.076Z,19.05
2023-03-15T19:24:02.144Z,18.63
2023-03-15T19:28:05.330Z,22.75
2023-03-15T19:32:08.560Z,22.05
2023-03-15T19:36:11.427Z,19.48
2023-03-15T19:40:17.718Z,15.38
2023-03-15T19:44:22.647Z,12.98
2023-03-15T19:48:25.870Z,11.93
2023-03-15T19:52:29.455Z,14.45
2023-03-15T19:56:33.853Z,14.95
2023-03-15T20:00:36.956Z,16.88
2023-03-15T20:04:40.730Z,16.13
2023-03-15T20:08:44.001Z,15.95
2023-03-15T20:12:48.989Z,14.52
2023-03-15T20:16:52.507Z,18.48
2023-03-15T20:20:55.998Z,16.23
2023-03-15T20:24:59.028Z,23.25
2023-03-15T20:29:03.528Z,17.50
2023-03-15T20:33:06.689Z,13.18
2023-03-15T20:37:13.647Z,14.65
2023-03-15T20:41:18.461Z,13.35
2023-03-15T20:45:22.986Z,13.55
2023-03-15T20:49:29.197Z,13.40
2023-03-15T20:53:33.303Z,15.88
2023-03-15T20:57:36.716Z,22.95
2023-03-15T21:01:42.069Z,22.55
2023-03-15T21:05:48.728Z,16.13
2023-03-15T21:09:53.651Z,15.30
2023-03-15T21:14:08.068Z,12.95
2023-03-15T21:18:20.415Z,35.85
2023-03-15T21:22:23.552Z,52.53
2023-03-15T21:26:26.484Z,84.60
2023-03-15T21:30:31.717Z,71.45
2023-03-15T21:34:41.412Z,25.60
2023-03-15T21:38:46.043Z,39.58
2023-03-15T21:42:49.104Z,20.88
2023-03-15T21:46:53.334Z,71.57
2023-03-15T21:50:58.074Z,101.65
2023-03-15T21:55:01.320Z,45.47
2023-03-15T21:59:05.034Z,42.28
2023-03-15T22:03:08.065Z,39.55
2023-03-15T22:07:12.909Z,31.45
2023-03-15T22:11:16.261Z,38.17
2023-03-15T22:15:19.642Z,46.97
2023-03-15T22:19:22.583Z,71.28
2023-03-15T22:23:28.393Z,39.42
2023-03-15T22:27:31.464Z,42.47
2023-03-15T22:31:34.286Z,27.23
2023-03-15T22:35:38.020Z,19.38
2023-03-15T22:39:43.468Z,23.40
2023-03-15T22:43:47.074Z,34.25
2023-03-15T22:47:50.462Z,19.77
2023-03-15T22:51:54.084Z,16.73
2023-03-15T23:00:07.955Z,25.27
2023-03-15T23:04:12.606Z,11.02
2023-03-15T23:08:16.534Z,10.13
2023-03-15T23:12:27.096Z,15.50
2023-03-15T23:16:38.133Z,18.05
2023-03-15T23:20:42.499Z,13.95
2023-03-15T23:24:46.883Z,13.55
2023-03-15T23:28:52.248Z,13.85
2023-03-15T23:32:59.101Z,13.18
2023-03-15T23:37:02.175Z,10.77
2023-03-15T23:41:06.427Z,16.95
2023-03-15T23:45:13.790Z,10.90
2023-03-15T23:49:17.072Z,12.40
2023-03-15T23:53:19.974Z,14.05
2023-03-15T23:57:23.123Z,10.82
